Napa — WDE8110 — position and weather

sailwx.info

Track history (hours):
 
Tides and Currents Weather Stations Pressure Air Temp Water Temp Dewpoint Dewpoint Depression Visibility Wind Speed Wind Dir Waves Ship Positions

Napa

Owner: Golden Gate Bridge Hwy. and Transportation District, San Francisco, CA. More information available from US FCC via Universal Licensing System and Coast Guard Vessel Documentation Center.

Last reported at 2017-Dec-11 17:00 UTC. Time now 2017-Dec-12 17:54 UTC.
Position N 37°48' W 122°24'.

Length 38 m; draft 0.15 m.

Type: Passenger vessel. MMSI: 36677150.

Date/timePositionNaut miles runAvg speedWind from/ knotsBaromVisibWave heightAir tempDewpointWater temp
2017-Dec-11 17:00N 37°48' W 122°24'1019.1
2017-Dec-11 16:30N 37°56' W 122°29'0 0.5
2017-Dec-11 16:00N 37°56' W 122°30'1019.6
2017-Dec-11 15:31N 37°48' W 122°24'1019.9
2017-Dec-11 14:59N 37°57' W 122°30'1020.0
2017-Dec-11 14:31N 37°49' W 122°23'816.1
2017-Dec-11 14:00N 37°56' W 122°29'2 3.3
2017-Dec-11 13:31N 37°57' W 122°30'0 0.0
2017-Dec-11 04:13N 37°57' W 122°30'0 0.0
2017-Dec-11 04:00N 37°57' W 122°30'1021.0
2017-Dec-11 03:30N 37°48' W 122°24'0 0.9
2017-Dec-11 03:01N 37°48' W 122°23'510.7
2017-Dec-11 02:30N 37°51' W 122°29'510.8
2017-Dec-11 02:00N 37°48' W 122°24'0 0.0
2017-Dec-11 01:30N 37°48' W 122°24'1019.6
2017-Dec-11 01:00N 37°56' W 122°30'1 1.2
2017-Dec-11 00:30N 37°57' W 122°30'0 0.0
2017-Dec-09 03:48N 37°57' W 122°30'724.2
2017-Dec-09 03:31N 37°51' W 122°24'1 1.7
2017-Dec-09 03:01N 37°52' W 122°25'612.5
2017-Dec-09 02:30N 37°57' W 122°30'1020.6
2017-Dec-09 02:00N 37°48' W 122°24'611.2
2017-Dec-09 01:30N 37°53' W 122°26'510.1
2017-Dec-09 01:00N 37°57' W 122°30'1020.9
2017-Dec-09 00:31N 37°48' W 122°24'4 8.0
2017-Dec-09 00:01N 37°52' W 122°25'712.6
2017-Dec-08 23:29N 37°57' W 122°30'1022.1
2017-Dec-08 23:00N 37°48' W 122°24'815.4
2017-Dec-08 22:31N 37°55' W 122°27'3 6.3
2017-Dec-08 22:00N 37°57' W 122°31'0 0.0
2017-Dec-08 21:30N 37°57' W 122°31'0 0.0
2017-Dec-08 21:00N 37°57' W 122°31'0 0.0
2017-Dec-08 20:30N 37°57' W 122°31'0 0.0
2017-Dec-08 20:00N 37°57' W 122°31'0 0.0
2017-Dec-08 19:30N 37°57' W 122°31'1019.1
2017-Dec-08 19:01N 37°49' W 122°23'4 8.6
2017-Dec-08 18:31N 37°53' W 122°26'510.6
2017-Dec-08 18:00N 37°57' W 122°30'2 3.6
2017-Dec-08 17:30N 37°56' W 122°28'917.9
2017-Dec-08 17:00N 37°48' W 122°24'1019.1
2017-Dec-08 16:30N 37°56' W 122°29'0 0.8
2017-Dec-08 16:00N 37°56' W 122°30'1019.7
2017-Dec-08 15:30N 37°48' W 122°24'1020.7
2017-Dec-08 15:00N 37°57' W 122°30'714.9
2017-Dec-08 14:31N 37°51' W 122°24'2 4.3
2017-Dec-08 14:00N 37°53' W 122°26'510.4
2017-Dec-08 13:30N 37°57' W 122°30'0 0.0
2017-Dec-08 03:45N 37°57' W 122°30'626.4
2017-Dec-08 03:31N 37°52' W 122°24'1 2.2
2017-Dec-08 03:01N 37°53' W 122°26'611.1
2017-Dec-08 02:30N 37°57' W 122°30'1021.2
2017-Dec-08 02:00N 37°48' W 122°24'5 9.3
2017-Dec-08 01:30N 37°52' W 122°25'612.0
2017-Dec-08 01:00N 37°57' W 122°30'1021.2
2017-Dec-08 00:30N 37°48' W 122°24'4 8.3
2017-Dec-08 00:00N 37°52' W 122°25'611.8
2017-Dec-07 23:28N 37°57' W 122°30'1022.4
2017-Dec-07 23:00N 37°48' W 122°24'612.6
2017-Dec-07 22:30N 37°54' W 122°26'4 8.9
2017-Dec-07 22:00N 37°57' W 122°31'0 0.0
2017-Dec-07 20:42N 37°57' W 122°31'0 0.0
2017-Dec-07 20:17N 37°57' W 122°31'0 0.0
2017-Dec-07 20:00N 37°57' W 122°31'0 0.0
2017-Dec-07 19:29N 37°57' W 122°31'1021.3
2017-Dec-07 19:01N 37°49' W 122°23'2 4.7
2017-Dec-07 18:31N 37°51' W 122°24'814.5
2017-Dec-07 17:59N 37°57' W 122°30'2 4.4
2017-Dec-07 17:30N 37°56' W 122°28'917.4
2017-Dec-07 17:00N 37°48' W 122°24'918.1
2017-Dec-07 16:31N 37°56' W 122°29'1 1.7
2017-Dec-07 16:00N 37°56' W 122°30'1019.9
2017-Dec-07 15:30N 37°48' W 122°24'1020.8
2017-Dec-07 15:00N 37°57' W 122°30'816.1
2017-Dec-07 14:30N 37°51' W 122°24'4 8.1
2017-Dec-07 14:00N 37°54' W 122°27'4 8.1
2017-Dec-07 13:30N 37°57' W 122°30'0 0.0
2017-Dec-07 03:45N 37°57' W 122°30'625.9
2017-Dec-07 03:31N 37°52' W 122°25'2 3.8
2017-Dec-07 03:01N 37°53' W 122°26'5 8.9
2017-Dec-07 02:29N 37°57' W 122°30'1021.6
2017-Dec-07 02:00N 37°48' W 122°24'4 9.1
2017-Dec-07 01:31N 37°52' W 122°25'612.2
2017-Dec-07 01:00N 37°57' W 122°30'1021.4
2017-Dec-07 00:30N 37°48' W 122°24'4 8.9
2017-Dec-07 00:00N 37°52' W 122°25'611.5
2017-Dec-06 23:28N 37°57' W 122°30'1023.0
2017-Dec-06 23:01N 37°48' W 122°24'713.3
2017-Dec-06 22:31N 37°54' W 122°27'4 8.2
2017-Dec-06 22:00N 37°57' W 122°31'0 0.0
2017-Dec-06 21:30N 37°57' W 122°31'0 0.0
2017-Dec-06 21:00N 37°57' W 122°31'  
2017-Dec-02 03:46N 37°57' W 122°30'725.8
2017-Dec-02 03:31N 37°52' W 122°24'1 1.1
2017-Dec-02 03:01N 37°51' W 122°25'713.6
2017-Dec-02 02:30N 37°57' W 122°30'1020.9
2017-Dec-02 02:00N 37°48' W 122°24'510.3
2017-Dec-02 01:30N 37°53' W 122°26'510.7
2017-Dec-02 01:00N 37°57' W 122°30'1020.5
2017-Dec-02 00:30N 37°48' W 122°24'5 9.9
2017-Dec-02 00:00N 37°52' W 122°25'611.4
2017-Dec-01 23:30N 37°57' W 122°30'1021.1
2017-Dec-01 23:00N 37°48' W 122°24'714.1
2017-Dec-01 22:31N 37°54' W 122°27'4 7.4
2017-Dec-01 22:00N 37°57' W 122°31'0 0.0
2017-Dec-01 21:28N 37°57' W 122°31'0 0.0
2017-Dec-01 21:00N 37°57' W 122°31'0 0.0
2017-Dec-01 20:30N 37°57' W 122°31'0 0.0
2017-Dec-01 20:00N 37°57' W 122°31'0 0.0
2017-Dec-01 19:30N 37°57' W 122°31'1020.7
2017-Dec-01 19:00N 37°48' W 122°23'3 5.6
2017-Dec-01 18:31N 37°51' W 122°25'714.9
2017-Dec-01 18:00N 37°57' W 122°30'2 3.4
2017-Dec-01 17:30N 37°56' W 122°29'918.0
2017-Dec-01 17:00N 37°48' W 122°24'  
Track history (hours):
 
Tides and Currents Weather Stations Pressure Air Temp Water Temp Dewpoint Dewpoint Depression Visibility Wind Speed Wind Dir Waves Ship Positions

Napa

Owner: Golden Gate Bridge Hwy. and Transportation District, San Francisco, CA. More information available from US FCC via Universal Licensing System and Coast Guard Vessel Documentation Center.

Last reported at 2017-Dec-11 17:00 UTC. Time now 2017-Dec-12 17:54 UTC.
Position N 37°48' W 122°24'.

Length 38 m; draft 0.15 m.

Type: Passenger vessel. MMSI: 36677150.

Date/timePositionNaut miles runAvg speedWind from/ knotsBaromVisibWave heightAir tempDewpointWater temp
2017-Dec-11 17:00N 37°48' W 122°24'1019.1
2017-Dec-11 16:30N 37°56' W 122°29'0 0.5
2017-Dec-11 16:00N 37°56' W 122°30'1019.6
2017-Dec-11 15:31N 37°48' W 122°24'1019.9
2017-Dec-11 14:59N 37°57' W 122°30'1020.0
2017-Dec-11 14:31N 37°49' W 122°23'816.1
2017-Dec-11 14:00N 37°56' W 122°29'2 3.3
2017-Dec-11 13:31N 37°57' W 122°30'0 0.0
2017-Dec-11 04:13N 37°57' W 122°30'0 0.0
2017-Dec-11 04:00N 37°57' W 122°30'1021.0
2017-Dec-11 03:30N 37°48' W 122°24'0 0.9
2017-Dec-11 03:01N 37°48' W 122°23'510.7
2017-Dec-11 02:30N 37°51' W 122°29'510.8
2017-Dec-11 02:00N 37°48' W 122°24'0 0.0
2017-Dec-11 01:30N 37°48' W 122°24'1019.6
2017-Dec-11 01:00N 37°56' W 122°30'1 1.2
2017-Dec-11 00:30N 37°57' W 122°30'0 0.0
2017-Dec-09 03:48N 37°57' W 122°30'724.2
2017-Dec-09 03:31N 37°51' W 122°24'1 1.7
2017-Dec-09 03:01N 37°52' W 122°25'612.5
2017-Dec-09 02:30N 37°57' W 122°30'1020.6
2017-Dec-09 02:00N 37°48' W 122°24'611.2
2017-Dec-09 01:30N 37°53' W 122°26'510.1
2017-Dec-09 01:00N 37°57' W 122°30'1020.9
2017-Dec-09 00:31N 37°48' W 122°24'4 8.0
2017-Dec-09 00:01N 37°52' W 122°25'712.6
2017-Dec-08 23:29N 37°57' W 122°30'1022.1
2017-Dec-08 23:00N 37°48' W 122°24'815.4
2017-Dec-08 22:31N 37°55' W 122°27'3 6.3
2017-Dec-08 22:00N 37°57' W 122°31'0 0.0
2017-Dec-08 21:30N 37°57' W 122°31'0 0.0
2017-Dec-08 21:00N 37°57' W 122°31'0 0.0
2017-Dec-08 20:30N 37°57' W 122°31'0 0.0
2017-Dec-08 20:00N 37°57' W 122°31'0 0.0
2017-Dec-08 19:30N 37°57' W 122°31'1019.1
2017-Dec-08 19:01N 37°49' W 122°23'4 8.6
2017-Dec-08 18:31N 37°53' W 122°26'510.6
2017-Dec-08 18:00N 37°57' W 122°30'2 3.6
2017-Dec-08 17:30N 37°56' W 122°28'917.9
2017-Dec-08 17:00N 37°48' W 122°24'1019.1
2017-Dec-08 16:30N 37°56' W 122°29'0 0.8
2017-Dec-08 16:00N 37°56' W 122°30'1019.7
2017-Dec-08 15:30N 37°48' W 122°24'1020.7
2017-Dec-08 15:00N 37°57' W 122°30'714.9
2017-Dec-08 14:31N 37°51' W 122°24'2 4.3
2017-Dec-08 14:00N 37°53' W 122°26'510.4
2017-Dec-08 13:30N 37°57' W 122°30'0 0.0
2017-Dec-08 03:45N 37°57' W 122°30'626.4
2017-Dec-08 03:31N 37°52' W 122°24'1 2.2
2017-Dec-08 03:01N 37°53' W 122°26'611.1
2017-Dec-08 02:30N 37°57' W 122°30'1021.2
2017-Dec-08 02:00N 37°48' W 122°24'5 9.3
2017-Dec-08 01:30N 37°52' W 122°25'612.0
2017-Dec-08 01:00N 37°57' W 122°30'1021.2
2017-Dec-08 00:30N 37°48' W 122°24'4 8.3
2017-Dec-08 00:00N 37°52' W 122°25'611.8
2017-Dec-07 23:28N 37°57' W 122°30'1022.4
2017-Dec-07 23:00N 37°48' W 122°24'612.6
2017-Dec-07 22:30N 37°54' W 122°26'4 8.9
2017-Dec-07 22:00N 37°57' W 122°31'0 0.0
2017-Dec-07 20:42N 37°57' W 122°31'0 0.0
2017-Dec-07 20:17N 37°57' W 122°31'0 0.0
2017-Dec-07 20:00N 37°57' W 122°31'0 0.0
2017-Dec-07 19:29N 37°57' W 122°31'1021.3
2017-Dec-07 19:01N 37°49' W 122°23'2 4.7
2017-Dec-07 18:31N 37°51' W 122°24'814.5
2017-Dec-07 17:59N 37°57' W 122°30'2 4.4
2017-Dec-07 17:30N 37°56' W 122°28'917.4
2017-Dec-07 17:00N 37°48' W 122°24'918.1
2017-Dec-07 16:31N 37°56' W 122°29'1 1.7
2017-Dec-07 16:00N 37°56' W 122°30'1019.9
2017-Dec-07 15:30N 37°48' W 122°24'1020.8
2017-Dec-07 15:00N 37°57' W 122°30'816.1
2017-Dec-07 14:30N 37°51' W 122°24'4 8.1
2017-Dec-07 14:00N 37°54' W 122°27'4 8.1
2017-Dec-07 13:30N 37°57' W 122°30'0 0.0
2017-Dec-07 03:45N 37°57' W 122°30'625.9
2017-Dec-07 03:31N 37°52' W 122°25'2 3.8
2017-Dec-07 03:01N 37°53' W 122°26'5 8.9
2017-Dec-07 02:29N 37°57' W 122°30'1021.6
2017-Dec-07 02:00N 37°48' W 122°24'4 9.1
2017-Dec-07 01:31N 37°52' W 122°25'612.2
2017-Dec-07 01:00N 37°57' W 122°30'1021.4
2017-Dec-07 00:30N 37°48' W 122°24'4 8.9
2017-Dec-07 00:00N 37°52' W 122°25'611.5
2017-Dec-06 23:28N 37°57' W 122°30'1023.0
2017-Dec-06 23:01N 37°48' W 122°24'713.3
2017-Dec-06 22:31N 37°54' W 122°27'4 8.2
2017-Dec-06 22:00N 37°57' W 122°31'0 0.0
2017-Dec-06 21:30N 37°57' W 122°31'0 0.0
2017-Dec-06 21:00N 37°57' W 122°31'  
2017-Dec-02 03:46N 37°57' W 122°30'725.8
2017-Dec-02 03:31N 37°52' W 122°24'1 1.1
2017-Dec-02 03:01N 37°51' W 122°25'713.6
2017-Dec-02 02:30N 37°57' W 122°30'1020.9
2017-Dec-02 02:00N 37°48' W 122°24'510.3
2017-Dec-02 01:30N 37°53' W 122°26'510.7
2017-Dec-02 01:00N 37°57' W 122°30'1020.5
2017-Dec-02 00:30N 37°48' W 122°24'5 9.9
2017-Dec-02 00:00N 37°52' W 122°25'611.4
2017-Dec-01 23:30N 37°57' W 122°30'1021.1
2017-Dec-01 23:00N 37°48' W 122°24'714.1
2017-Dec-01 22:31N 37°54' W 122°27'4 7.4
2017-Dec-01 22:00N 37°57' W 122°31'0 0.0
2017-Dec-01 21:28N 37°57' W 122°31'0 0.0
2017-Dec-01 21:00N 37°57' W 122°31'0 0.0
2017-Dec-01 20:30N 37°57' W 122°31'0 0.0
2017-Dec-01 20:00N 37°57' W 122°31'0 0.0
2017-Dec-01 19:30N 37°57' W 122°31'1020.7
2017-Dec-01 19:00N 37°48' W 122°23'3 5.6
2017-Dec-01 18:31N 37°51' W 122°25'714.9
2017-Dec-01 18:00N 37°57' W 122°30'2 3.4
2017-Dec-01 17:30N 37°56' W 122°29'918.0
2017-Dec-01 17:00N 37°48' W 122°24'  

Dump ship's entire track history